Terminal Aerodrome Forecast
Issued by NWS

Home | Current Version | Previous Version | Text Only | Print | Product List | Glossary On
Versions: 1 2 3 4 5 6 7 8 9 10 11 12 13 14 15 16 17 18 19 20
000
FTUS43 KSGF 282300
TAFBBG
TAF
KBBG 282322Z 2900/2924 17011G18KT P6SM SCT250 WS020/22050KT
     FM290800 26008KT P6SM SCT250
     FM291000 30008KT P6SM SKC
     FM291400 32011G22KT P6SM OVC015
     FM292000 32010G21KT P6SM BKN025=

USA.gov is the U.S. government's official web portal to all federal, state and local government web resources and services.